Costa Magica — IBQQ — position and weather

sailwx.info

Track history (hours):
 
Tides and Currents Weather Stations Pressure Air Temp Water Temp Dewpoint Dewpoint Depression Visibility Wind Speed Wind Dir Waves Ship Positions

Costa Magica

Last reported at 2018-Oct-24 05:03 UTC. Time now 2018-Oct-24 06:08 UTC.
Position N 39°32' E 002°39'.

Type: Ship. MMSI: 247113300.

Date/timePositionNaut miles runAvg speedWind from/ knotsBaromVisibWave heightAir tempDewpointWater temp
2018-Oct-24 05:03N 39°32' E 002°39'0 7.7
2018-Oct-24 05:00N 39°32' E 002°39'611.3
2018-Oct-24 04:30N 39°26' E 002°39'715.4
2018-Oct-24 04:03N 39°19' E 002°38'115.7
2018-Oct-24 04:00N 39°18' E 002°38'714.4
2018-Oct-24 03:30N 39°12' E 002°42'715.2
2018-Oct-24 03:04N 39°07' E 002°48'115.0
2018-Oct-24 03:00N 39°06' E 002°49'713.9
2018-Oct-24 02:30N 39°03' E 002°57'715.5
2018-Oct-24 02:03N 39°05' E 003°05'115.8
2018-Oct-24 02:00N 39°06' E 003°06'815.7
2018-Oct-24 01:30N 39°08' E 003°16'715.7
2018-Oct-24 01:04N 39°11' E 003°24'115.7
2018-Oct-24 01:00N 39°11' E 003°25'815.8
2018-Oct-24 00:30N 39°14' E 003°35'815.9
2018-Oct-24 00:00N 39°16' E 003°45'815.4
2018-Oct-23 23:30N 39°19' E 003°54'6615.4
2018-Oct-23 19:14N 39°53' E 005°07'24613.5
2018-Oct-23 01:04N 41°35' E 010°02'112.8
2018-Oct-23 01:02N 41°35' E 010°03'012.9
2018-Oct-23 01:00N 41°35' E 010°04'613.1
2018-Oct-23 00:30N 41°38' E 010°12'713.1
2018-Oct-23 00:00N 41°40' E 010°20'44 1.9
2018-Oct-22 01:26N 42°22' E 010°38'614.6
2018-Oct-22 01:02N 42°26' E 010°32'114.9
2018-Oct-22 00:59N 42°26' E 010°31'815.1
2018-Oct-22 00:29N 42°31' E 010°23'715.2
2018-Oct-22 00:02N 42°35' E 010°16'014.7
2018-Oct-22 00:00N 42°35' E 010°15'2713.4
2018-Oct-21 21:58N 43°01' E 010°01'1617.2
2018-Oct-21 21:00N 43°17' E 010°03'917.5
2018-Oct-21 20:30N 43°26' E 010°03'714.9
2018-Oct-21 20:03N 43°32' E 009°59'114.7
2018-Oct-21 20:00N 43°32' E 009°58'714.4
2018-Oct-21 19:30N 43°38' E 009°52'715.5
2018-Oct-21 19:03N 43°45' E 009°53'114.2
2018-Oct-21 19:00N 43°46' E 009°53'816.1
2018-Oct-21 18:30N 43°54' E 009°54'818.0
2018-Oct-21 18:03N 44°02' E 009°52'116.5
2018-Oct-21 18:00N 44°02' E 009°52'4 8.1
2018-Oct-21 17:30N 44°06' E 009°50'0 0.0
2018-Oct-21 17:03N 44°06' E 009°50'0 0.0
2018-Oct-21 17:00N 44°06' E 009°50'0 0.0
2018-Oct-21 16:30N 44°06' E 009°50'0 0.0
2018-Oct-21 16:03N 44°06' E 009°50'0 0.0
2018-Oct-21 16:00N 44°06' E 009°50'0 0.0
2018-Oct-21 15:30N 44°06' E 009°50'0 0.0
2018-Oct-21 15:03N 44°06' E 009°50'0 0.0
2018-Oct-21 15:00N 44°06' E 009°50'0 0.0
2018-Oct-21 14:30N 44°06' E 009°50'0 0.0
2018-Oct-21 14:00N 44°06' E 009°50'0 0.0
2018-Oct-21 13:30N 44°06' E 009°50'0 0.0
2018-Oct-21 13:03N 44°06' E 009°50'0 0.0
2018-Oct-21 13:00N 44°06' E 009°50'0 0.0
2018-Oct-21 12:30N 44°06' E 009°50'0 0.0
2018-Oct-21 12:03N 44°06' E 009°50'0 0.0
2018-Oct-21 12:00N 44°06' E 009°50'0 0.0
2018-Oct-21 11:30N 44°06' E 009°50'0 0.0
2018-Oct-21 11:03N 44°06' E 009°50'0 0.0
2018-Oct-21 11:00N 44°06' E 009°50'0 0.0
2018-Oct-21 10:30N 44°06' E 009°50'0 0.0
2018-Oct-21 10:03N 44°06' E 009°50'0 0.0
2018-Oct-21 10:00N 44°06' E 009°50'0 0.0
2018-Oct-21 09:30N 44°06' E 009°50'0 0.0
2018-Oct-21 09:03N 44°06' E 009°50'0 0.0
2018-Oct-21 09:00N 44°06' E 009°50'0 0.0
2018-Oct-21 08:30N 44°06' E 009°50'0 0.0
2018-Oct-21 08:03N 44°06' E 009°50'0 0.0
2018-Oct-21 08:00N 44°06' E 009°50'0 0.0
2018-Oct-21 07:30N 44°06' E 009°50'0 0.0
2018-Oct-21 07:03N 44°06' E 009°50'0 0.0
2018-Oct-21 07:00N 44°06' E 009°50'0 0.0
2018-Oct-21 06:30N 44°06' E 009°50'0 0.0
2018-Oct-21 06:03N 44°06' E 009°50'0 0.0
2018-Oct-21 06:00N 44°06' E 009°50'0 0.0
2018-Oct-21 05:30N 44°06' E 009°50'0 0.2
2018-Oct-21 05:03N 44°06' E 009°50'0 0.9
2018-Oct-21 05:00N 44°06' E 009°50'1 2.4
2018-Oct-21 04:30N 44°05' E 009°51'4 9.3
2018-Oct-21 04:03N 44°02' E 009°54'113.4
2018-Oct-21 04:00N 44°01' E 009°55'611.5
2018-Oct-21 03:31N 43°56' E 009°58'510.7
2018-Oct-21 03:03N 43°52' E 009°55'112.0
2018-Oct-21 03:00N 43°52' E 009°54'612.0
2018-Oct-21 02:30N 43°50' E 009°46'511.9
2018-Oct-21 02:03N 43°49' E 009°39'111.7
2018-Oct-21 02:00N 43°49' E 009°38'611.7
2018-Oct-21 01:30N 43°47' E 009°30'511.7
2018-Oct-21 01:03N 43°46' E 009°23'111.6
2018-Oct-21 01:00N 43°45' E 009°22'611.6
2018-Oct-21 00:30N 43°44' E 009°15'511.6
2018-Oct-21 00:03N 43°42' E 009°08'111.7
2018-Oct-21 00:00N 43°42' E 009°07'611.6
2018-Oct-20 23:30N 43°39' E 008°60'511.7
2018-Oct-20 23:03N 43°38' E 008°53'111.7
2018-Oct-20 23:01N 43°38' E 008°52'611.2
2018-Oct-20 22:30N 43°35' E 008°45'4 8.7
2018-Oct-20 22:03N 43°36' E 008°40'111.9
2018-Oct-20 22:00N 43°37' E 008°40'611.7
2018-Oct-20 21:30N 43°42' E 008°41'511.9
2018-Oct-20 21:03N 43°48' E 008°41'112.6
2018-Oct-20 21:00N 43°48' E 008°41'612.3
2018-Oct-20 20:30N 43°55' E 008°42'511.7
2018-Oct-20 20:03N 43°60' E 008°42'111.6
2018-Oct-20 20:00N 44°00' E 008°42'611.2
2018-Oct-20 19:31N 44°06' E 008°41'511.5
2018-Oct-20 19:03N 44°10' E 008°38'111.5
2018-Oct-20 19:01N 44°11' E 008°37'612.1
2018-Oct-20 18:30N 44°16' E 008°33'4 8.1
2018-Oct-20 18:03N 44°19' E 008°30'0 4.4
2018-Oct-20 18:00N 44°19' E 008°30'0 0.6
2018-Oct-20 17:28N 44°19' E 008°29'0 0.0
2018-Oct-20 17:01N 44°19' E 008°29'0 0.0
2018-Oct-20 16:58N 44°19' E 008°29'0 0.0
2018-Oct-20 16:28N 44°19' E 008°29'0 0.0
2018-Oct-20 16:01N 44°19' E 008°29'0 0.0
2018-Oct-20 15:58N 44°19' E 008°29'0 0.0
2018-Oct-20 15:28N 44°19' E 008°29'0 0.0
2018-Oct-20 15:01N 44°19' E 008°29'0 0.0
2018-Oct-20 14:58N 44°19' E 008°29'0 0.0
2018-Oct-20 14:01N 44°19' E 008°29'0 0.0
2018-Oct-20 13:58N 44°19' E 008°29'0 0.0
2018-Oct-20 13:28N 44°19' E 008°29'0 0.0
2018-Oct-20 13:01N 44°19' E 008°29'0 0.0
2018-Oct-20 12:58N 44°19' E 008°29'0 0.0
2018-Oct-20 12:28N 44°19' E 008°29'0 0.0
2018-Oct-20 12:01N 44°19' E 008°29'0 0.0
2018-Oct-20 11:58N 44°19' E 008°29'0 0.0
2018-Oct-20 11:28N 44°19' E 008°29'0 0.0
2018-Oct-20 11:01N 44°19' E 008°29'0 0.0
2018-Oct-20 10:58N 44°19' E 008°29'0 0.0
2018-Oct-20 10:28N 44°19' E 008°29'0 0.0
2018-Oct-20 10:01N 44°19' E 008°29'0 0.0
2018-Oct-20 09:58N 44°19' E 008°29'0 0.0
2018-Oct-20 09:28N 44°19' E 008°29'0 0.0
2018-Oct-20 09:01N 44°19' E 008°29'0 0.0
2018-Oct-20 08:58N 44°19' E 008°29'0 0.0
2018-Oct-20 08:28N 44°19' E 008°29'0 0.0
2018-Oct-20 08:01N 44°19' E 008°29'0 0.0
2018-Oct-20 07:58N 44°19' E 008°29'0 0.0
2018-Oct-20 07:28N 44°19' E 008°29'0 0.0
2018-Oct-20 07:01N 44°19' E 008°29'0 0.1
2018-Oct-20 06:58N 44°19' E 008°29'0 0.0
2018-Oct-20 06:28N 44°19' E 008°29'1 1.9
2018-Oct-20 06:03N 44°19' E 008°30'0 6.3
2018-Oct-20 06:00N 44°19' E 008°31'5 9.2
2018-Oct-20 05:30N 44°15' E 008°34'613.6
2018-Oct-20 05:03N 44°09' E 008°31'114.4
2018-Oct-20 05:00N 44°09' E 008°31'714.8
2018-Oct-20 04:30N 44°02' E 008°25'714.9
2018-Oct-20 04:03N 43°57' E 008°20'115.0
2018-Oct-20 04:00N 43°56' E 008°19'714.8
2018-Oct-20 03:30N 43°50' E 008°14'714.8
2018-Oct-20 03:03N 43°44' E 008°09'114.6
2018-Oct-20 03:00N 43°44' E 008°08'714.6
2018-Oct-20 02:30N 43°38' E 008°02'614.5
2018-Oct-20 02:03N 43°34' E 007°55'114.7
2018-Oct-20 02:01N 43°34' E 007°54'714.7
2018-Oct-20 01:30N 43°30' E 007°45'714.8
2018-Oct-20 01:03N 43°27' E 007°37'114.7
2018-Oct-20 01:00N 43°26' E 007°37'815.2
2018-Oct-20 00:30N 43°22' E 007°28'715.3
2018-Oct-20 00:03N 43°19' E 007°20'115.1
2018-Oct-20 00:00N 43°18' E 007°19'815.1
2018-Oct-19 23:30N 43°14' E 007°10'715.0
2018-Oct-19 23:03N 43°11' E 007°02'114.8
2018-Oct-19 23:00N 43°10' E 007°01'714.8
2018-Oct-19 22:30N 43°06' E 006°53'714.8
2018-Oct-19 22:03N 43°03' E 006°45'114.7
2018-Oct-19 22:00N 43°02' E 006°44'714.4
2018-Oct-19 21:29N 42°58' E 006°36'1014.2
2018-Oct-19 20:48N 42°54' E 006°24'5113.6
2018-Oct-19 17:01N 43°11' E 005°18'015.1
2018-Oct-19 17:00N 43°11' E 005°18'713.1
2018-Oct-19 16:30N 43°18' E 005°16'4 9.3
2018-Oct-19 16:03N 43°21' E 005°20'0 2.8
2018-Oct-19 15:59N 43°21' E 005°20'0 0.0
2018-Oct-19 15:16N 43°21' E 005°20'0 0.0
2018-Oct-19 14:52N 43°21' E 005°20'0 0.0
2018-Oct-19 13:22N 43°21' E 005°20'0 0.0
2018-Oct-19 12:22N 43°21' E 005°20'0 0.0
2018-Oct-19 11:49N 43°21' E 005°20'0 0.0
2018-Oct-19 10:52N 43°21' E 005°20'0 0.0
2018-Oct-19 09:40N 43°21' E 005°20'0 0.0
2018-Oct-19 09:07N 43°21' E 005°20'0 0.0
2018-Oct-19 08:28N 43°21' E 005°20'0 0.0
2018-Oct-19 07:55N 43°21' E 005°20'0 0.0
2018-Oct-19 07:25N 43°21' E 005°20'0 0.0
2018-Oct-19 06:58N 43°21' E 005°20'0 0.7
2018-Oct-19 06:28N 43°21' E 005°20'3 7.2
2018-Oct-19 06:03N 43°20' E 005°16'113.1
2018-Oct-19 06:00N 43°19' E 005°15'510.8
2018-Oct-19 05:30N 43°15' E 005°10'613.8
2018-Oct-19 05:03N 43°11' E 005°05'114.4
2018-Oct-19 05:01N 43°10' E 005°04'714.7
2018-Oct-19 04:30N 43°04' E 004°57'714.6
2018-Oct-19 04:00N 42°59' E 004°51'714.2
2018-Oct-19 03:30N 42°54' E 004°45'13315.3
2018-Oct-18 18:51N 41°24' E 002°33'514.9
2018-Oct-18 18:30N 41°21' E 002°27'612.5
2018-Oct-18 18:03N 41°18' E 002°21'112.4
2018-Oct-18 18:00N 41°18' E 002°20'612.2
2018-Oct-18 17:30N 41°15' E 002°13'511.9
2018-Oct-18 17:04N 41°20' E 002°10'0 9.1
2018-Oct-18 17:01N 41°20' E 002°10'1 1.6
2018-Oct-18 16:29N 41°21' E 002°10'0 0.0
2018-Oct-18 16:03N 41°21' E 002°10'0 0.0
2018-Oct-18 16:00N 41°21' E 002°10'0 0.0
2018-Oct-18 15:29N 41°21' E 002°10'0 0.0
2018-Oct-18 15:02N 41°21' E 002°10'0 0.0
2018-Oct-18 14:59N 41°21' E 002°10'0 0.0
2018-Oct-18 14:03N 41°21' E 002°10'0 0.0
2018-Oct-18 13:59N 41°21' E 002°10'0 0.0
2018-Oct-18 13:30N 41°21' E 002°10'0 0.0
2018-Oct-18 13:03N 41°21' E 002°10'0 0.0
2018-Oct-18 13:00N 41°21' E 002°10'0 0.0
2018-Oct-18 12:26N 41°21' E 002°10'0 0.0
2018-Oct-18 12:02N 41°21' E 002°10'0 0.0
2018-Oct-18 12:00N 41°21' E 002°10'0 0.0
2018-Oct-18 11:29N 41°21' E 002°10'0 0.0
2018-Oct-18 11:02N 41°21' E 002°10'0 0.0
2018-Oct-18 10:59N 41°21' E 002°10'0 0.0
2018-Oct-18 10:24N 41°21' E 002°10'0 0.0
2018-Oct-18 09:50N 41°21' E 002°10'0 0.0
2018-Oct-18 09:27N 41°21' E 002°10'0 0.0
2018-Oct-18 09:03N 41°21' E 002°10'0 0.0
2018-Oct-18 08:59N 41°21' E 002°10'0 0.0
2018-Oct-18 08:29N 41°21' E 002°10'0 0.0
2018-Oct-18 08:03N 41°21' E 002°10'0 0.0
2018-Oct-18 07:57N 41°21' E 002°10'0 0.0
2018-Oct-18 07:30N 41°21' E 002°10'0 0.0
2018-Oct-18 07:02N 41°21' E 002°10'0 0.0
2018-Oct-18 06:59N 41°21' E 002°10'0 0.2
2018-Oct-18 06:29N 41°21' E 002°10'2 4.2
2018-Oct-18 06:04N 41°19' E 002°10'110.5
2018-Oct-18 06:01N 41°19' E 002°10'611.8
2018-Oct-18 05:30N 41°13' E 002°13'512.1
2018-Oct-18 05:03N 41°08' E 002°15'110.9
2018-Oct-18 05:00N 41°07' E 002°15'610.9
2018-Oct-18 04:30N 41°02' E 002°16'610.8
2018-Oct-18 03:58N 40°56' E 002°15'9610.2
2018-Oct-17 18:37N 39°21' E 002°09'211.9
2018-Oct-17 18:29N 39°21' E 002°11'511.9
2018-Oct-17 18:03N 39°20' E 002°17'111.8
2018-Oct-17 18:00N 39°20' E 002°18'612.0
2018-Oct-17 17:30N 39°20' E 002°26'511.4
2018-Oct-17 17:03N 39°24' E 002°31'111.8
2018-Oct-17 17:00N 39°24' E 002°31'611.9
2018-Oct-17 16:30N 39°29' E 002°36'510.6
2018-Oct-17 16:03N 39°33' E 002°39'0 7.2
2018-Oct-17 16:00N 39°33' E 002°39'1 1.3
2018-Oct-17 15:29N 39°33' E 002°38'0 0.0
2018-Oct-17 15:02N 39°33' E 002°38'0 0.0
2018-Oct-17 14:59N 39°33' E 002°38'0 0.0
2018-Oct-17 13:59N 39°33' E 002°38'0 0.0
2018-Oct-17 13:29N 39°33' E 002°38'0 0.0
2018-Oct-17 13:02N 39°33' E 002°38'0 0.0
2018-Oct-17 12:59N 39°33' E 002°38'0 0.0
2018-Oct-17 12:29N 39°33' E 002°38'0 0.0
2018-Oct-17 12:02N 39°33' E 002°38'0 0.2
2018-Oct-17 11:59N 39°33' E 002°38'0 0.0
2018-Oct-17 11:29N 39°33' E 002°38'0 0.0
2018-Oct-17 11:02N 39°33' E 002°38'0 0.0
2018-Oct-17 10:59N 39°33' E 002°38'0 0.0
2018-Oct-17 10:29N 39°33' E 002°38'0 0.0
2018-Oct-17 10:02N 39°33' E 002°38'0 0.0
2018-Oct-17 09:56N 39°33' E 002°38'0 0.0
2018-Oct-17 09:26N 39°33' E 002°38'0 0.0
2018-Oct-17 09:02N 39°33' E 002°38'0 0.0
2018-Oct-17 08:59N 39°33' E 002°38'0 0.0
2018-Oct-17 08:26N 39°33' E 002°38'0 0.0
2018-Oct-17 08:02N 39°33' E 002°38'0 0.0
2018-Oct-17 07:59N 39°33' E 002°38'0 0.0
2018-Oct-17 07:26N 39°33' E 002°38'0 0.0
2018-Oct-17 07:02N 39°33' E 002°38'0 0.0
2018-Oct-17 06:59N 39°33' E 002°38'0 0.0
2018-Oct-17 06:20N 39°33' E 002°38'0 0.0
2018-Oct-17 06:02N 39°33' E 002°38'0 0.0
2018-Oct-17 05:59N 39°33' E 002°38'0 0.1
2018-Oct-17 05:29N 39°33' E 002°38'2 3.7
2018-Oct-17 05:03N 39°32' E 002°39'0 7.9
2018-Oct-17 05:00N 39°31' E 002°39'611.7
2018-Oct-17 04:30N 39°25' E 002°38'612.4
2018-Oct-17 04:03N 39°20' E 002°38'112.5
2018-Oct-17 04:00N 39°19' E 002°38'612.2
2018-Oct-17 03:30N 39°13' E 002°40'613.9
2018-Oct-17 03:03N 39°09' E 002°46'113.7
2018-Oct-17 02:59N 39°08' E 002°47'713.5
2018-Oct-17 02:30N 39°04' E 002°53'612.6
2018-Oct-17 02:03N 39°04' E 002°60'113.6
2018-Oct-17 02:00N 39°04' E 003°01'713.8
2018-Oct-17 01:30N 39°06' E 003°09'613.9
2018-Oct-17 01:03N 39°09' E 003°17'114.0
2018-Oct-17 01:00N 39°09' E 003°18'914.0
2018-Oct-17 00:22N 39°12' E 003°28'714.1
2018-Oct-16 23:52N 39°14' E 003°37'814.3
2018-Oct-16 23:17N 39°17' E 003°47'314.0
2018-Oct-16 23:03N 39°18' E 003°51'113.9
2018-Oct-16 23:01N 39°18' E 003°52'31613.3
2018-Oct-15 23:15N 41°36' E 010°06'313.8
2018-Oct-15 23:03N 41°37' E 010°09'113.6
2018-Oct-15 23:00N 41°37' E 010°10'1313.8
2018-Oct-15 22:04N 41°42' E 010°26'113.6
2018-Oct-15 21:58N 41°43' E 010°27'1013.7
2018-Oct-15 21:15N 41°47' E 010°39'413.6
2018-Oct-15 20:56N 41°48' E 010°45'28 1.5
2018-Oct-15 02:13N 42°16' E 010°48'415.2
2018-Oct-15 01:59N 42°18' E 010°44'815.6
2018-Oct-15 01:29N 42°23' E 010°36'816.4
2018-Oct-15 00:59N 42°29' E 010°27'816.3
2018-Oct-15 00:30N 42°33' E 010°19'815.8
2018-Oct-15 00:01N 42°38' E 010°11'215.7
2018-Oct-14 23:54N 42°39' E 010°09'615.7
2018-Oct-14 23:30N 42°43' E 010°02'815.1
2018-Oct-14 22:59N 42°51' E 010°01'816.3
2018-Oct-14 22:31N 42°58' E 010°01'716.3
2018-Oct-14 22:03N 43°06' E 010°02'116.3
2018-Oct-14 22:00N 43°07' E 010°02'816.2
2018-Oct-14 21:30N 43°15' E 010°03'716.2
2018-Oct-14 21:03N 43°22' E 010°03'116.3
2018-Oct-14 21:01N 43°23' E 010°03'714.9
2018-Oct-14 20:30N 43°30' E 010°02'715.6
2018-Oct-14 20:03N 43°34' E 009°54'115.6
2018-Oct-14 20:00N 43°35' E 009°53'816.1
2018-Oct-14 19:30N 43°43' E 009°52'716.3
2018-Oct-14 19:03N 43°50' E 009°53'116.5
2018-Oct-14 19:01N 43°51' E 009°53'816.2
2018-Oct-14 18:31N 43°59' E 009°53'613.4
2018-Oct-14 18:03N 44°05' E 009°51'110.5
2018-Oct-14 18:00N 44°05' E 009°51'1 2.0
2018-Oct-14 17:30N 44°06' E 009°50'0 0.0
2018-Oct-14 17:03N 44°06' E 009°50'0 0.0
2018-Oct-14 17:00N 44°06' E 009°50'0 0.0
2018-Oct-14 16:30N 44°06' E 009°50'0 0.0
2018-Oct-14 16:03N 44°06' E 009°50'0 0.0
2018-Oct-14 16:00N 44°06' E 009°50'0 0.0
2018-Oct-14 15:30N 44°06' E 009°50'0 0.0
2018-Oct-14 15:03N 44°06' E 009°50'0 0.0
2018-Oct-14 15:00N 44°06' E 009°50'0 0.0
2018-Oct-14 14:30N 44°06' E 009°50'0 0.0
2018-Oct-14 14:00N 44°06' E 009°50'0 0.0
2018-Oct-14 13:30N 44°06' E 009°50'0 0.0
2018-Oct-14 13:03N 44°06' E 009°50'0 0.0
2018-Oct-14 13:00N 44°06' E 009°50'0 0.0
2018-Oct-14 12:30N 44°06' E 009°50'0 0.0
2018-Oct-14 12:03N 44°06' E 009°50'0 0.0
2018-Oct-14 11:57N 44°06' E 009°50'0 0.0
2018-Oct-14 11:30N 44°06' E 009°50'0 0.0
2018-Oct-14 11:00N 44°06' E 009°50'0 0.0
2018-Oct-14 10:30N 44°06' E 009°50'0 0.0
2018-Oct-14 10:03N 44°06' E 009°50'0 0.0
2018-Oct-14 10:00N 44°06' E 009°50'0 0.0
2018-Oct-14 09:30N 44°06' E 009°50'0 0.0
2018-Oct-14 09:03N 44°06' E 009°50'0 0.0
2018-Oct-14 09:00N 44°06' E 009°50'0 0.0
2018-Oct-14 08:30N 44°06' E 009°50'0 0.0
2018-Oct-14 08:03N 44°06' E 009°50'0 0.0
2018-Oct-14 08:00N 44°06' E 009°50'0 0.0
2018-Oct-14 07:30N 44°06' E 009°50'0 0.0
2018-Oct-14 07:03N 44°06' E 009°50'0 0.1
2018-Oct-14 07:00N 44°06' E 009°50'0 0.0
2018-Oct-14 06:30N 44°06' E 009°50'0 0.0
2018-Oct-14 06:03N 44°06' E 009°50'0 0.0
2018-Oct-14 06:00N 44°06' E 009°50'0 0.0
2018-Oct-14 05:30N 44°06' E 009°50'0 0.0
2018-Oct-14 05:03N 44°06' E 009°50'  
Track history (hours):
 
Tides and Currents Weather Stations Pressure Air Temp Water Temp Dewpoint Dewpoint Depression Visibility Wind Speed Wind Dir Waves Ship Positions

Costa Magica

Last reported at 2018-Oct-24 05:03 UTC. Time now 2018-Oct-24 06:08 UTC.
Position N 39°32' E 002°39'.

Type: Ship. MMSI: 247113300.

Date/timePositionNaut miles runAvg speedWind from/ knotsBaromVisibWave heightAir tempDewpointWater temp
2018-Oct-24 05:03N 39°32' E 002°39'0 7.7
2018-Oct-24 05:00N 39°32' E 002°39'611.3
2018-Oct-24 04:30N 39°26' E 002°39'715.4
2018-Oct-24 04:03N 39°19' E 002°38'115.7
2018-Oct-24 04:00N 39°18' E 002°38'714.4
2018-Oct-24 03:30N 39°12' E 002°42'715.2
2018-Oct-24 03:04N 39°07' E 002°48'115.0
2018-Oct-24 03:00N 39°06' E 002°49'713.9
2018-Oct-24 02:30N 39°03' E 002°57'715.5
2018-Oct-24 02:03N 39°05' E 003°05'115.8
2018-Oct-24 02:00N 39°06' E 003°06'815.7
2018-Oct-24 01:30N 39°08' E 003°16'715.7
2018-Oct-24 01:04N 39°11' E 003°24'115.7
2018-Oct-24 01:00N 39°11' E 003°25'815.8
2018-Oct-24 00:30N 39°14' E 003°35'815.9
2018-Oct-24 00:00N 39°16' E 003°45'815.4
2018-Oct-23 23:30N 39°19' E 003°54'6615.4
2018-Oct-23 19:14N 39°53' E 005°07'24613.5
2018-Oct-23 01:04N 41°35' E 010°02'112.8
2018-Oct-23 01:02N 41°35' E 010°03'012.9
2018-Oct-23 01:00N 41°35' E 010°04'613.1
2018-Oct-23 00:30N 41°38' E 010°12'713.1
2018-Oct-23 00:00N 41°40' E 010°20'44 1.9
2018-Oct-22 01:26N 42°22' E 010°38'614.6
2018-Oct-22 01:02N 42°26' E 010°32'114.9
2018-Oct-22 00:59N 42°26' E 010°31'815.1
2018-Oct-22 00:29N 42°31' E 010°23'715.2
2018-Oct-22 00:02N 42°35' E 010°16'014.7
2018-Oct-22 00:00N 42°35' E 010°15'2713.4
2018-Oct-21 21:58N 43°01' E 010°01'1617.2
2018-Oct-21 21:00N 43°17' E 010°03'917.5
2018-Oct-21 20:30N 43°26' E 010°03'714.9
2018-Oct-21 20:03N 43°32' E 009°59'114.7
2018-Oct-21 20:00N 43°32' E 009°58'714.4
2018-Oct-21 19:30N 43°38' E 009°52'715.5
2018-Oct-21 19:03N 43°45' E 009°53'114.2
2018-Oct-21 19:00N 43°46' E 009°53'816.1
2018-Oct-21 18:30N 43°54' E 009°54'818.0
2018-Oct-21 18:03N 44°02' E 009°52'116.5
2018-Oct-21 18:00N 44°02' E 009°52'4 8.1
2018-Oct-21 17:30N 44°06' E 009°50'0 0.0
2018-Oct-21 17:03N 44°06' E 009°50'0 0.0
2018-Oct-21 17:00N 44°06' E 009°50'0 0.0
2018-Oct-21 16:30N 44°06' E 009°50'0 0.0
2018-Oct-21 16:03N 44°06' E 009°50'0 0.0
2018-Oct-21 16:00N 44°06' E 009°50'0 0.0
2018-Oct-21 15:30N 44°06' E 009°50'0 0.0
2018-Oct-21 15:03N 44°06' E 009°50'0 0.0
2018-Oct-21 15:00N 44°06' E 009°50'0 0.0
2018-Oct-21 14:30N 44°06' E 009°50'0 0.0
2018-Oct-21 14:00N 44°06' E 009°50'0 0.0
2018-Oct-21 13:30N 44°06' E 009°50'0 0.0
2018-Oct-21 13:03N 44°06' E 009°50'0 0.0
2018-Oct-21 13:00N 44°06' E 009°50'0 0.0
2018-Oct-21 12:30N 44°06' E 009°50'0 0.0
2018-Oct-21 12:03N 44°06' E 009°50'0 0.0
2018-Oct-21 12:00N 44°06' E 009°50'0 0.0
2018-Oct-21 11:30N 44°06' E 009°50'0 0.0
2018-Oct-21 11:03N 44°06' E 009°50'0 0.0
2018-Oct-21 11:00N 44°06' E 009°50'0 0.0
2018-Oct-21 10:30N 44°06' E 009°50'0 0.0
2018-Oct-21 10:03N 44°06' E 009°50'0 0.0
2018-Oct-21 10:00N 44°06' E 009°50'0 0.0
2018-Oct-21 09:30N 44°06' E 009°50'0 0.0
2018-Oct-21 09:03N 44°06' E 009°50'0 0.0
2018-Oct-21 09:00N 44°06' E 009°50'0 0.0
2018-Oct-21 08:30N 44°06' E 009°50'0 0.0
2018-Oct-21 08:03N 44°06' E 009°50'0 0.0
2018-Oct-21 08:00N 44°06' E 009°50'0 0.0
2018-Oct-21 07:30N 44°06' E 009°50'0 0.0
2018-Oct-21 07:03N 44°06' E 009°50'0 0.0
2018-Oct-21 07:00N 44°06' E 009°50'0 0.0
2018-Oct-21 06:30N 44°06' E 009°50'0 0.0
2018-Oct-21 06:03N 44°06' E 009°50'0 0.0
2018-Oct-21 06:00N 44°06' E 009°50'0 0.0
2018-Oct-21 05:30N 44°06' E 009°50'0 0.2
2018-Oct-21 05:03N 44°06' E 009°50'0 0.9
2018-Oct-21 05:00N 44°06' E 009°50'1 2.4
2018-Oct-21 04:30N 44°05' E 009°51'4 9.3
2018-Oct-21 04:03N 44°02' E 009°54'113.4
2018-Oct-21 04:00N 44°01' E 009°55'611.5
2018-Oct-21 03:31N 43°56' E 009°58'510.7
2018-Oct-21 03:03N 43°52' E 009°55'112.0
2018-Oct-21 03:00N 43°52' E 009°54'612.0
2018-Oct-21 02:30N 43°50' E 009°46'511.9
2018-Oct-21 02:03N 43°49' E 009°39'111.7
2018-Oct-21 02:00N 43°49' E 009°38'611.7
2018-Oct-21 01:30N 43°47' E 009°30'511.7
2018-Oct-21 01:03N 43°46' E 009°23'111.6
2018-Oct-21 01:00N 43°45' E 009°22'611.6
2018-Oct-21 00:30N 43°44' E 009°15'511.6
2018-Oct-21 00:03N 43°42' E 009°08'111.7
2018-Oct-21 00:00N 43°42' E 009°07'611.6
2018-Oct-20 23:30N 43°39' E 008°60'511.7
2018-Oct-20 23:03N 43°38' E 008°53'111.7
2018-Oct-20 23:01N 43°38' E 008°52'611.2
2018-Oct-20 22:30N 43°35' E 008°45'4 8.7
2018-Oct-20 22:03N 43°36' E 008°40'111.9
2018-Oct-20 22:00N 43°37' E 008°40'611.7
2018-Oct-20 21:30N 43°42' E 008°41'511.9
2018-Oct-20 21:03N 43°48' E 008°41'112.6
2018-Oct-20 21:00N 43°48' E 008°41'612.3
2018-Oct-20 20:30N 43°55' E 008°42'511.7
2018-Oct-20 20:03N 43°60' E 008°42'111.6
2018-Oct-20 20:00N 44°00' E 008°42'611.2
2018-Oct-20 19:31N 44°06' E 008°41'511.5
2018-Oct-20 19:03N 44°10' E 008°38'111.5
2018-Oct-20 19:01N 44°11' E 008°37'612.1
2018-Oct-20 18:30N 44°16' E 008°33'4 8.1
2018-Oct-20 18:03N 44°19' E 008°30'0 4.4
2018-Oct-20 18:00N 44°19' E 008°30'0 0.6
2018-Oct-20 17:28N 44°19' E 008°29'0 0.0
2018-Oct-20 17:01N 44°19' E 008°29'0 0.0
2018-Oct-20 16:58N 44°19' E 008°29'0 0.0
2018-Oct-20 16:28N 44°19' E 008°29'0 0.0
2018-Oct-20 16:01N 44°19' E 008°29'0 0.0
2018-Oct-20 15:58N 44°19' E 008°29'0 0.0
2018-Oct-20 15:28N 44°19' E 008°29'0 0.0
2018-Oct-20 15:01N 44°19' E 008°29'0 0.0
2018-Oct-20 14:58N 44°19' E 008°29'0 0.0
2018-Oct-20 14:01N 44°19' E 008°29'0 0.0
2018-Oct-20 13:58N 44°19' E 008°29'0 0.0
2018-Oct-20 13:28N 44°19' E 008°29'0 0.0
2018-Oct-20 13:01N 44°19' E 008°29'0 0.0
2018-Oct-20 12:58N 44°19' E 008°29'0 0.0
2018-Oct-20 12:28N 44°19' E 008°29'0 0.0
2018-Oct-20 12:01N 44°19' E 008°29'0 0.0
2018-Oct-20 11:58N 44°19' E 008°29'0 0.0
2018-Oct-20 11:28N 44°19' E 008°29'0 0.0
2018-Oct-20 11:01N 44°19' E 008°29'0 0.0
2018-Oct-20 10:58N 44°19' E 008°29'0 0.0
2018-Oct-20 10:28N 44°19' E 008°29'0 0.0
2018-Oct-20 10:01N 44°19' E 008°29'0 0.0
2018-Oct-20 09:58N 44°19' E 008°29'0 0.0
2018-Oct-20 09:28N 44°19' E 008°29'0 0.0
2018-Oct-20 09:01N 44°19' E 008°29'0 0.0
2018-Oct-20 08:58N 44°19' E 008°29'0 0.0
2018-Oct-20 08:28N 44°19' E 008°29'0 0.0
2018-Oct-20 08:01N 44°19' E 008°29'0 0.0
2018-Oct-20 07:58N 44°19' E 008°29'0 0.0
2018-Oct-20 07:28N 44°19' E 008°29'0 0.0
2018-Oct-20 07:01N 44°19' E 008°29'0 0.1
2018-Oct-20 06:58N 44°19' E 008°29'0 0.0
2018-Oct-20 06:28N 44°19' E 008°29'1 1.9
2018-Oct-20 06:03N 44°19' E 008°30'0 6.3
2018-Oct-20 06:00N 44°19' E 008°31'5 9.2
2018-Oct-20 05:30N 44°15' E 008°34'613.6
2018-Oct-20 05:03N 44°09' E 008°31'114.4
2018-Oct-20 05:00N 44°09' E 008°31'714.8
2018-Oct-20 04:30N 44°02' E 008°25'714.9
2018-Oct-20 04:03N 43°57' E 008°20'115.0
2018-Oct-20 04:00N 43°56' E 008°19'714.8
2018-Oct-20 03:30N 43°50' E 008°14'714.8
2018-Oct-20 03:03N 43°44' E 008°09'114.6
2018-Oct-20 03:00N 43°44' E 008°08'714.6
2018-Oct-20 02:30N 43°38' E 008°02'614.5
2018-Oct-20 02:03N 43°34' E 007°55'114.7
2018-Oct-20 02:01N 43°34' E 007°54'714.7
2018-Oct-20 01:30N 43°30' E 007°45'714.8
2018-Oct-20 01:03N 43°27' E 007°37'114.7
2018-Oct-20 01:00N 43°26' E 007°37'815.2
2018-Oct-20 00:30N 43°22' E 007°28'715.3
2018-Oct-20 00:03N 43°19' E 007°20'115.1
2018-Oct-20 00:00N 43°18' E 007°19'815.1
2018-Oct-19 23:30N 43°14' E 007°10'715.0
2018-Oct-19 23:03N 43°11' E 007°02'114.8
2018-Oct-19 23:00N 43°10' E 007°01'714.8
2018-Oct-19 22:30N 43°06' E 006°53'714.8
2018-Oct-19 22:03N 43°03' E 006°45'114.7
2018-Oct-19 22:00N 43°02' E 006°44'714.4
2018-Oct-19 21:29N 42°58' E 006°36'1014.2
2018-Oct-19 20:48N 42°54' E 006°24'5113.6
2018-Oct-19 17:01N 43°11' E 005°18'015.1
2018-Oct-19 17:00N 43°11' E 005°18'713.1
2018-Oct-19 16:30N 43°18' E 005°16'4 9.3
2018-Oct-19 16:03N 43°21' E 005°20'0 2.8
2018-Oct-19 15:59N 43°21' E 005°20'0 0.0
2018-Oct-19 15:16N 43°21' E 005°20'0 0.0
2018-Oct-19 14:52N 43°21' E 005°20'0 0.0
2018-Oct-19 13:22N 43°21' E 005°20'0 0.0
2018-Oct-19 12:22N 43°21' E 005°20'0 0.0
2018-Oct-19 11:49N 43°21' E 005°20'0 0.0
2018-Oct-19 10:52N 43°21' E 005°20'0 0.0
2018-Oct-19 09:40N 43°21' E 005°20'0 0.0
2018-Oct-19 09:07N 43°21' E 005°20'0 0.0
2018-Oct-19 08:28N 43°21' E 005°20'0 0.0
2018-Oct-19 07:55N 43°21' E 005°20'0 0.0
2018-Oct-19 07:25N 43°21' E 005°20'0 0.0
2018-Oct-19 06:58N 43°21' E 005°20'0 0.7
2018-Oct-19 06:28N 43°21' E 005°20'3 7.2
2018-Oct-19 06:03N 43°20' E 005°16'113.1
2018-Oct-19 06:00N 43°19' E 005°15'510.8
2018-Oct-19 05:30N 43°15' E 005°10'613.8
2018-Oct-19 05:03N 43°11' E 005°05'114.4
2018-Oct-19 05:01N 43°10' E 005°04'714.7
2018-Oct-19 04:30N 43°04' E 004°57'714.6
2018-Oct-19 04:00N 42°59' E 004°51'714.2
2018-Oct-19 03:30N 42°54' E 004°45'13315.3
2018-Oct-18 18:51N 41°24' E 002°33'514.9
2018-Oct-18 18:30N 41°21' E 002°27'612.5
2018-Oct-18 18:03N 41°18' E 002°21'112.4
2018-Oct-18 18:00N 41°18' E 002°20'612.2
2018-Oct-18 17:30N 41°15' E 002°13'511.9
2018-Oct-18 17:04N 41°20' E 002°10'0 9.1
2018-Oct-18 17:01N 41°20' E 002°10'1 1.6
2018-Oct-18 16:29N 41°21' E 002°10'0 0.0
2018-Oct-18 16:03N 41°21' E 002°10'0 0.0
2018-Oct-18 16:00N 41°21' E 002°10'0 0.0
2018-Oct-18 15:29N 41°21' E 002°10'0 0.0
2018-Oct-18 15:02N 41°21' E 002°10'0 0.0
2018-Oct-18 14:59N 41°21' E 002°10'0 0.0
2018-Oct-18 14:03N 41°21' E 002°10'0 0.0
2018-Oct-18 13:59N 41°21' E 002°10'0 0.0
2018-Oct-18 13:30N 41°21' E 002°10'0 0.0
2018-Oct-18 13:03N 41°21' E 002°10'0 0.0
2018-Oct-18 13:00N 41°21' E 002°10'0 0.0
2018-Oct-18 12:26N 41°21' E 002°10'0 0.0
2018-Oct-18 12:02N 41°21' E 002°10'0 0.0
2018-Oct-18 12:00N 41°21' E 002°10'0 0.0
2018-Oct-18 11:29N 41°21' E 002°10'0 0.0
2018-Oct-18 11:02N 41°21' E 002°10'0 0.0
2018-Oct-18 10:59N 41°21' E 002°10'0 0.0
2018-Oct-18 10:24N 41°21' E 002°10'0 0.0
2018-Oct-18 09:50N 41°21' E 002°10'0 0.0
2018-Oct-18 09:27N 41°21' E 002°10'0 0.0
2018-Oct-18 09:03N 41°21' E 002°10'0 0.0
2018-Oct-18 08:59N 41°21' E 002°10'0 0.0
2018-Oct-18 08:29N 41°21' E 002°10'0 0.0
2018-Oct-18 08:03N 41°21' E 002°10'0 0.0
2018-Oct-18 07:57N 41°21' E 002°10'0 0.0
2018-Oct-18 07:30N 41°21' E 002°10'0 0.0
2018-Oct-18 07:02N 41°21' E 002°10'0 0.0
2018-Oct-18 06:59N 41°21' E 002°10'0 0.2
2018-Oct-18 06:29N 41°21' E 002°10'2 4.2
2018-Oct-18 06:04N 41°19' E 002°10'110.5
2018-Oct-18 06:01N 41°19' E 002°10'611.8
2018-Oct-18 05:30N 41°13' E 002°13'512.1
2018-Oct-18 05:03N 41°08' E 002°15'110.9
2018-Oct-18 05:00N 41°07' E 002°15'610.9
2018-Oct-18 04:30N 41°02' E 002°16'610.8
2018-Oct-18 03:58N 40°56' E 002°15'9610.2
2018-Oct-17 18:37N 39°21' E 002°09'211.9
2018-Oct-17 18:29N 39°21' E 002°11'511.9
2018-Oct-17 18:03N 39°20' E 002°17'111.8
2018-Oct-17 18:00N 39°20' E 002°18'612.0
2018-Oct-17 17:30N 39°20' E 002°26'511.4
2018-Oct-17 17:03N 39°24' E 002°31'111.8
2018-Oct-17 17:00N 39°24' E 002°31'611.9
2018-Oct-17 16:30N 39°29' E 002°36'510.6
2018-Oct-17 16:03N 39°33' E 002°39'0 7.2
2018-Oct-17 16:00N 39°33' E 002°39'1 1.3
2018-Oct-17 15:29N 39°33' E 002°38'0 0.0
2018-Oct-17 15:02N 39°33' E 002°38'0 0.0
2018-Oct-17 14:59N 39°33' E 002°38'0 0.0
2018-Oct-17 13:59N 39°33' E 002°38'0 0.0
2018-Oct-17 13:29N 39°33' E 002°38'0 0.0
2018-Oct-17 13:02N 39°33' E 002°38'0 0.0
2018-Oct-17 12:59N 39°33' E 002°38'0 0.0
2018-Oct-17 12:29N 39°33' E 002°38'0 0.0
2018-Oct-17 12:02N 39°33' E 002°38'0 0.2
2018-Oct-17 11:59N 39°33' E 002°38'0 0.0
2018-Oct-17 11:29N 39°33' E 002°38'0 0.0
2018-Oct-17 11:02N 39°33' E 002°38'0 0.0
2018-Oct-17 10:59N 39°33' E 002°38'0 0.0
2018-Oct-17 10:29N 39°33' E 002°38'0 0.0
2018-Oct-17 10:02N 39°33' E 002°38'0 0.0
2018-Oct-17 09:56N 39°33' E 002°38'0 0.0
2018-Oct-17 09:26N 39°33' E 002°38'0 0.0
2018-Oct-17 09:02N 39°33' E 002°38'0 0.0
2018-Oct-17 08:59N 39°33' E 002°38'0 0.0
2018-Oct-17 08:26N 39°33' E 002°38'0 0.0
2018-Oct-17 08:02N 39°33' E 002°38'0 0.0
2018-Oct-17 07:59N 39°33' E 002°38'0 0.0
2018-Oct-17 07:26N 39°33' E 002°38'0 0.0
2018-Oct-17 07:02N 39°33' E 002°38'0 0.0
2018-Oct-17 06:59N 39°33' E 002°38'0 0.0
2018-Oct-17 06:20N 39°33' E 002°38'0 0.0
2018-Oct-17 06:02N 39°33' E 002°38'0 0.0
2018-Oct-17 05:59N 39°33' E 002°38'0 0.1
2018-Oct-17 05:29N 39°33' E 002°38'2 3.7
2018-Oct-17 05:03N 39°32' E 002°39'0 7.9
2018-Oct-17 05:00N 39°31' E 002°39'611.7
2018-Oct-17 04:30N 39°25' E 002°38'612.4
2018-Oct-17 04:03N 39°20' E 002°38'112.5
2018-Oct-17 04:00N 39°19' E 002°38'612.2
2018-Oct-17 03:30N 39°13' E 002°40'613.9
2018-Oct-17 03:03N 39°09' E 002°46'113.7
2018-Oct-17 02:59N 39°08' E 002°47'713.5
2018-Oct-17 02:30N 39°04' E 002°53'612.6
2018-Oct-17 02:03N 39°04' E 002°60'113.6
2018-Oct-17 02:00N 39°04' E 003°01'713.8
2018-Oct-17 01:30N 39°06' E 003°09'613.9
2018-Oct-17 01:03N 39°09' E 003°17'114.0
2018-Oct-17 01:00N 39°09' E 003°18'914.0
2018-Oct-17 00:22N 39°12' E 003°28'714.1
2018-Oct-16 23:52N 39°14' E 003°37'814.3
2018-Oct-16 23:17N 39°17' E 003°47'314.0
2018-Oct-16 23:03N 39°18' E 003°51'113.9
2018-Oct-16 23:01N 39°18' E 003°52'31613.3
2018-Oct-15 23:15N 41°36' E 010°06'313.8
2018-Oct-15 23:03N 41°37' E 010°09'113.6
2018-Oct-15 23:00N 41°37' E 010°10'1313.8
2018-Oct-15 22:04N 41°42' E 010°26'113.6
2018-Oct-15 21:58N 41°43' E 010°27'1013.7
2018-Oct-15 21:15N 41°47' E 010°39'413.6
2018-Oct-15 20:56N 41°48' E 010°45'28 1.5
2018-Oct-15 02:13N 42°16' E 010°48'415.2
2018-Oct-15 01:59N 42°18' E 010°44'815.6
2018-Oct-15 01:29N 42°23' E 010°36'816.4
2018-Oct-15 00:59N 42°29' E 010°27'816.3
2018-Oct-15 00:30N 42°33' E 010°19'815.8
2018-Oct-15 00:01N 42°38' E 010°11'215.7
2018-Oct-14 23:54N 42°39' E 010°09'615.7
2018-Oct-14 23:30N 42°43' E 010°02'815.1
2018-Oct-14 22:59N 42°51' E 010°01'816.3
2018-Oct-14 22:31N 42°58' E 010°01'716.3
2018-Oct-14 22:03N 43°06' E 010°02'116.3
2018-Oct-14 22:00N 43°07' E 010°02'816.2
2018-Oct-14 21:30N 43°15' E 010°03'716.2
2018-Oct-14 21:03N 43°22' E 010°03'116.3
2018-Oct-14 21:01N 43°23' E 010°03'714.9
2018-Oct-14 20:30N 43°30' E 010°02'715.6
2018-Oct-14 20:03N 43°34' E 009°54'115.6
2018-Oct-14 20:00N 43°35' E 009°53'816.1
2018-Oct-14 19:30N 43°43' E 009°52'716.3
2018-Oct-14 19:03N 43°50' E 009°53'116.5
2018-Oct-14 19:01N 43°51' E 009°53'816.2
2018-Oct-14 18:31N 43°59' E 009°53'613.4
2018-Oct-14 18:03N 44°05' E 009°51'110.5
2018-Oct-14 18:00N 44°05' E 009°51'1 2.0
2018-Oct-14 17:30N 44°06' E 009°50'0 0.0
2018-Oct-14 17:03N 44°06' E 009°50'0 0.0
2018-Oct-14 17:00N 44°06' E 009°50'0 0.0
2018-Oct-14 16:30N 44°06' E 009°50'0 0.0
2018-Oct-14 16:03N 44°06' E 009°50'0 0.0
2018-Oct-14 16:00N 44°06' E 009°50'0 0.0
2018-Oct-14 15:30N 44°06' E 009°50'0 0.0
2018-Oct-14 15:03N 44°06' E 009°50'0 0.0
2018-Oct-14 15:00N 44°06' E 009°50'0 0.0
2018-Oct-14 14:30N 44°06' E 009°50'0 0.0
2018-Oct-14 14:00N 44°06' E 009°50'0 0.0
2018-Oct-14 13:30N 44°06' E 009°50'0 0.0
2018-Oct-14 13:03N 44°06' E 009°50'0 0.0
2018-Oct-14 13:00N 44°06' E 009°50'0 0.0
2018-Oct-14 12:30N 44°06' E 009°50'0 0.0
2018-Oct-14 12:03N 44°06' E 009°50'0 0.0
2018-Oct-14 11:57N 44°06' E 009°50'0 0.0
2018-Oct-14 11:30N 44°06' E 009°50'0 0.0
2018-Oct-14 11:00N 44°06' E 009°50'0 0.0
2018-Oct-14 10:30N 44°06' E 009°50'0 0.0
2018-Oct-14 10:03N 44°06' E 009°50'0 0.0
2018-Oct-14 10:00N 44°06' E 009°50'0 0.0
2018-Oct-14 09:30N 44°06' E 009°50'0 0.0
2018-Oct-14 09:03N 44°06' E 009°50'0 0.0
2018-Oct-14 09:00N 44°06' E 009°50'0 0.0
2018-Oct-14 08:30N 44°06' E 009°50'0 0.0
2018-Oct-14 08:03N 44°06' E 009°50'0 0.0
2018-Oct-14 08:00N 44°06' E 009°50'0 0.0
2018-Oct-14 07:30N 44°06' E 009°50'0 0.0
2018-Oct-14 07:03N 44°06' E 009°50'0 0.1
2018-Oct-14 07:00N 44°06' E 009°50'0 0.0
2018-Oct-14 06:30N 44°06' E 009°50'0 0.0
2018-Oct-14 06:03N 44°06' E 009°50'0 0.0
2018-Oct-14 06:00N 44°06' E 009°50'0 0.0
2018-Oct-14 05:30N 44°06' E 009°50'0 0.0
2018-Oct-14 05:03N 44°06' E 009°50'  

Dump ship's entire track history